Time,TemperatureF,DewpointF,PressureIn,WindDirection,WindDirectionDegrees,WindSpeedMPH,WindSpeedGustMPH,Humidity,HourlyPrecipIn,Conditions,Clouds,dailyrainin,SoftwareType,DateUTC
2013-08-25 00:05:00,55.2,52.6,30.29,SSE,149,0.0,0.0,91,0.00,,,0.00,Wunderground v.1.15,2013-08-25 04:05:00,
2013-08-25 00:10:00,55.3,52.7,30.29,SSE,149,0.0,0.0,91,0.00,,,0.00,Wunderground v.1.15,2013-08-25 04:10:00,
2013-08-25 00:20:00,55.6,52.7,30.29,SSE,149,0.0,0.0,90,0.00,,,0.00,Wunderground v.1.15,2013-08-25 04:20:00,
2013-08-25 00:25:00,55.6,52.7,30.28,SSE,149,0.0,0.0,90,0.00,,,0.00,Wunderground v.1.15,2013-08-25 04:25:00,
2013-08-25 00:35:00,55.1,52.2,30.28,SSE,150,0.0,0.0,90,0.00,,,0.00,Wunderground v.1.15,2013-08-25 04:35:00,
2013-08-25 00:40:00,55.1,52.5,30.28,SSE,149,0.0,0.0,91,0.00,,,0.00,Wunderground v.1.15,2013-08-25 04:40:00,
2013-08-25 00:50:00,55.3,52.7,30.28,SSE,149,0.0,0.0,91,0.00,,,0.00,Wunderground v.1.15,2013-08-25 04:50:00,
2013-08-25 01:00:00,55.3,52.7,30.28,SSE,149,0.0,0.0,91,0.00,,,0.00,Wunderground v.1.15,2013-08-25 05:00:00,
2013-08-25 01:10:00,55.3,52.7,30.28,SSE,150,0.0,0.0,91,0.00,,,0.00,Wunderground v.1.15,2013-08-25 05:10:00,
2013-08-25 01:20:00,55.1,52.8,30.28,SSE,150,0.0,0.0,92,0.00,,,0.00,Wunderground v.1.15,2013-08-25 05:20:00,
2013-08-25 01:25:00,54.8,52.5,30.28,SSE,150,0.0,0.0,92,0.00,,,0.00,Wunderground v.1.15,2013-08-25 05:25:00,
2013-08-25 01:30:00,54.6,52.3,30.28,SSE,149,0.0,0.0,92,0.00,,,0.00,Wunderground v.1.15,2013-08-25 05:30:00,
2013-08-25 01:40:00,54.0,51.7,30.28,SSE,150,0.0,0.0,92,0.00,,,0.00,Wunderground v.1.15,2013-08-25 05:40:00,
2013-08-25 01:50:00,53.7,51.7,30.27,SSE,150,0.0,0.0,93,0.00,,,0.00,Wunderground v.1.15,2013-08-25 05:50:00,
2013-08-25 01:55:00,53.6,51.6,30.27,SSE,150,0.0,0.0,93,0.00,,,0.00,Wunderground v.1.15,2013-08-25 05:55:00,
2013-08-25 02:05:00,53.7,52.0,30.27,SSE,150,0.0,0.0,94,0.00,,,0.00,Wunderground v.1.15,2013-08-25 06:05:00,
2013-08-25 02:15:00,53.7,52.0,30.27,SSE,149,0.0,0.0,94,0.00,,,0.00,Wunderground v.1.15,2013-08-25 06:15:00,
2013-08-25 02:20:00,53.6,51.9,30.27,SSE,149,0.0,0.0,94,0.00,,,0.00,Wunderground v.1.15,2013-08-25 06:20:00,
2013-08-25 02:30:00,53.6,51.9,30.27,SSE,150,0.0,0.0,94,0.00,,,0.00,Wunderground v.1.15,2013-08-25 06:30:00,
2013-08-25 02:40:00,53.4,51.7,30.27,SSE,150,0.0,0.0,94,0.00,,,0.00,Wunderground v.1.15,2013-08-25 06:40:00,
2013-08-25 02:45:00,53.3,51.6,30.27,SSE,149,0.0,0.0,94,0.00,,,0.00,Wunderground v.1.15,2013-08-25 06:45:00,
2013-08-25 02:55:00,53.0,51.3,30.27,SSE,149,0.0,0.0,94,0.00,,,0.00,Wunderground v.1.15,2013-08-25 06:55:00,
2013-08-25 03:01:00,52.9,51.2,30.27,SSE,150,0.0,0.0,94,0.00,,,0.00,Wunderground v.1.15,2013-08-25 07:01:00,
2013-08-25 03:10:00,52.8,51.1,30.27,SSE,149,0.0,0.0,94,0.00,,,0.00,Wunderground v.1.15,2013-08-25 07:10:00,
2013-08-25 03:20:00,52.6,50.9,30.27,SSE,149,0.0,0.0,94,0.00,,,0.00,Wunderground v.1.15,2013-08-25 07:20:00,
2013-08-25 03:30:00,52.5,50.8,30.27,SSE,150,0.0,0.0,94,0.00,,,0.00,Wunderground v.1.15,2013-08-25 07:30:00,
2013-08-25 03:40:00,52.2,50.5,30.27,SSE,150,0.0,0.0,94,0.00,,,0.00,Wunderground v.1.15,2013-08-25 07:40:00,
2013-08-25 03:50:00,51.9,50.2,30.27,SSE,150,0.0,0.0,94,0.00,,,0.00,Wunderground v.1.15,2013-08-25 07:50:00,
2013-08-25 04:00:00,51.9,50.2,30.27,SSE,149,0.0,0.0,94,0.00,,,0.00,Wunderground v.1.15,2013-08-25 08:00:00,
2013-08-25 04:10:00,51.9,50.5,30.28,SSE,149,0.0,0.0,95,0.00,,,0.00,Wunderground v.1.15,2013-08-25 08:10:00,
2013-08-25 04:20:00,51.7,50.0,30.28,SSE,150,0.0,0.0,94,0.00,,,0.00,Wunderground v.1.15,2013-08-25 08:20:00,
2013-08-25 04:25:00,51.5,49.8,30.29,SSE,150,0.0,0.0,94,0.00,,,0.00,Wunderground v.1.15,2013-08-25 08:25:00,
2013-08-25 04:35:00,51.3,49.9,30.28,SSE,150,0.0,0.0,95,0.00,,,0.00,Wunderground v.1.15,2013-08-25 08:35:00,
2013-08-25 04:45:00,51.2,49.8,30.28,SSE,150,0.0,0.0,95,0.00,,,0.00,Wunderground v.1.15,2013-08-25 08:45:00,
2013-08-25 04:55:00,51.5,50.1,30.29,SSE,149,0.0,0.0,95,0.00,,,0.00,Wunderground v.1.15,2013-08-25 08:55:00,
2013-08-25 05:05:00,51.6,50.2,30.29,SSE,150,0.0,0.0,95,0.00,,,0.00,Wunderground v.1.15,2013-08-25 09:05:00,
2013-08-25 05:15:00,51.7,50.3,30.29,SSE,150,0.0,0.0,95,0.00,,,0.00,Wunderground v.1.15,2013-08-25 09:15:00,
2013-08-25 05:25:00,51.9,50.5,30.30,SSE,149,0.0,0.0,95,0.00,,,0.00,Wunderground v.1.15,2013-08-25 09:25:00,
2013-08-25 05:35:00,52.4,51.0,30.30,SSE,150,0.0,0.0,95,0.00,,,0.00,Wunderground v.1.15,2013-08-25 09:35:00,
2013-08-25 05:40:00,52.6,51.2,30.30,SSE,149,0.0,0.0,95,0.00,,,0.00,Wunderground v.1.15,2013-08-25 09:40:00,
2013-08-25 05:50:00,52.3,50.6,30.31,SSE,150,0.0,0.0,94,0.00,,,0.00,Wunderground v.1.15,2013-08-25 09:50:00,
2013-08-25 06:00:00,51.4,49.7,30.31,SSE,150,0.0,0.0,94,0.00,,,0.00,Wunderground v.1.15,2013-08-25 10:00:00,
2013-08-25 06:10:00,50.8,49.1,30.32,SSE,149,0.0,0.0,94,0.00,,,0.00,Wunderground v.1.15,2013-08-25 10:10:00,
2013-08-25 06:20:00,50.5,49.1,30.32,SSE,150,0.0,0.0,95,0.00,,,0.00,Wunderground v.1.15,2013-08-25 10:20:00,
2013-08-25 06:30:00,50.5,49.1,30.32,SSE,150,0.0,0.0,95,0.00,,,0.00,Wunderground v.1.15,2013-08-25 10:30:00,
2013-08-25 06:35:00,50.4,49.0,30.32,SSE,150,0.0,0.0,95,0.00,,,0.00,Wunderground v.1.15,2013-08-25 10:35:00,
2013-08-25 06:45:00,50.4,49.0,30.32,SSE,150,0.0,0.0,95,0.00,,,0.00,Wunderground v.1.15,2013-08-25 10:45:00,
2013-08-25 06:55:00,50.6,49.5,30.32,SSE,150,0.0,0.0,96,0.00,,,0.00,Wunderground v.1.15,2013-08-25 10:55:00,
2013-08-25 07:05:00,50.9,49.8,30.33,SSE,150,0.0,0.0,96,0.00,,,0.00,Wunderground v.1.15,2013-08-25 11:05:00,
2013-08-25 07:15:00,51.5,50.4,30.33,SSE,150,0.0,0.0,96,0.00,,,0.00,Wunderground v.1.15,2013-08-25 11:15:00,
2013-08-25 07:25:00,52.3,51.2,30.33,SSE,150,0.0,0.0,96,0.00,,,0.00,Wunderground v.1.15,2013-08-25 11:25:00,
2013-08-25 07:35:00,53.1,52.3,30.33,SSE,150,0.0,0.0,97,0.00,,,0.00,Wunderground v.1.15,2013-08-25 11:35:00,
2013-08-25 07:45:00,54.1,53.3,30.33,SSE,150,0.0,0.0,97,0.00,,,0.00,Wunderground v.1.15,2013-08-25 11:45:00,
2013-08-25 07:55:00,54.9,54.1,30.33,SSE,150,0.0,0.0,97,0.00,,,0.00,Wunderground v.1.15,2013-08-25 11:55:00,
2013-08-25 08:00:00,55.6,54.5,30.33,SSE,150,0.0,0.0,96,0.00,,,0.00,Wunderground v.1.15,2013-08-25 12:00:00,
2013-08-25 08:10:00,57.2,56.1,30.32,SSE,150,0.0,0.0,96,0.00,,,0.00,Wunderground v.1.15,2013-08-25 12:10:00,
2013-08-25 08:20:00,58.3,56.9,30.32,SSE,149,0.0,0.0,95,0.00,,,0.00,Wunderground v.1.15,2013-08-25 12:20:00,
2013-08-25 08:30:00,59.8,58.4,30.32,SSE,150,0.0,0.0,95,0.00,,,0.00,Wunderground v.1.15,2013-08-25 12:30:00,
2013-08-25 08:40:00,61.7,58.7,30.32,SSE,150,0.0,0.0,90,0.00,,,0.00,Wunderground v.1.15,2013-08-25 12:40:00,
2013-08-25 08:45:00,62.7,59.4,30.32,SSE,150,0.0,0.0,89,0.00,,,0.00,Wunderground v.1.15,2013-08-25 12:45:00,
2013-08-25 08:55:00,64.7,60.7,30.32,SSE,150,0.0,0.0,87,0.00,,,0.00,Wunderground v.1.15,2013-08-25 12:55:00,
2013-08-25 11:35:00,74.9,61.5,30.28,NNE,33,0.0,0.0,63,0.00,,,0.00,Wunderground v.1.15,2013-08-25 15:35:00,
2013-08-25 11:45:00,75.4,60.1,30.28,ENE,74,0.0,0.0,59,0.00,,,0.00,Wunderground v.1.15,2013-08-25 15:45:00,
2013-08-25 11:55:00,75.6,59.8,30.27,ENE,75,0.0,1.0,58,0.00,,,0.00,Wunderground v.1.15,2013-08-25 15:55:00,
2013-08-25 12:00:00,75.8,60.9,30.27,ENE,73,0.0,0.0,60,0.00,,,0.00,Wunderground v.1.15,2013-08-25 16:00:00,
2013-08-25 12:10:00,76.5,60.1,30.26,ENE,68,0.0,0.0,57,0.00,,,0.00,Wunderground v.1.15,2013-08-25 16:10:00,
2013-08-25 12:20:00,76.6,59.7,30.26,ENE,69,0.0,0.0,56,0.00,,,0.00,Wunderground v.1.15,2013-08-25 16:20:00,
2013-08-25 12:25:00,77.0,58.0,30.26,ENE,69,0.0,0.0,52,0.00,,,0.00,Wunderground v.1.15,2013-08-25 16:25:00,
2013-08-25 12:35:00,76.9,57.4,30.25,ESE,109,0.0,0.0,51,0.00,,,0.00,Wunderground v.1.15,2013-08-25 16:35:00,
2013-08-25 12:40:00,77.1,59.2,30.25,ESE,109,0.0,0.0,54,0.00,,,0.00,Wunderground v.1.15,2013-08-25 16:40:00,
2013-08-25 12:50:00,77.6,58.0,30.25,ESE,109,0.0,0.0,51,0.00,,,0.00,Wunderground v.1.15,2013-08-25 16:50:00,
2013-08-25 13:00:00,78.2,60.2,30.24,NE,55,0.0,0.0,54,0.00,,,0.00,Wunderground v.1.15,2013-08-25 17:00:00,
2013-08-25 13:05:00,78.0,58.4,30.25,ENE,59,0.0,0.0,51,0.00,,,0.00,Wunderground v.1.15,2013-08-25 17:05:00,
2013-08-25 13:15:00,77.8,55.4,30.25,ENE,62,0.0,0.0,46,0.00,,,0.00,Wunderground v.1.15,2013-08-25 17:15:00,
2013-08-25 13:25:00,77.5,56.3,30.24,East,96,1.0,1.0,48,0.00,,,0.00,Wunderground v.1.15,2013-08-25 17:25:00,
2013-08-25 13:30:00,77.6,56.9,30.24,East,96,0.0,0.0,49,0.00,,,0.00,Wunderground v.1.15,2013-08-25 17:30:00,
2013-08-25 13:40:00,77.6,56.4,30.24,East,96,0.0,1.0,48,0.00,,,0.00,Wunderground v.1.15,2013-08-25 17:40:00,
2013-08-25 13:50:00,77.5,53.9,30.24,East,90,1.0,1.0,44,0.00,,,0.00,Wunderground v.1.15,2013-08-25 17:50:00,
2013-08-25 14:00:00,77.4,56.2,30.24,East,89,0.0,0.0,48,0.00,,,0.00,Wunderground v.1.15,2013-08-25 18:00:00,
2013-08-25 14:10:00,78.0,56.7,30.24,East,90,0.0,0.0,48,0.00,,,0.00,Wunderground v.1.15,2013-08-25 18:10:00,
2013-08-25 14:20:00,78.7,58.5,30.23,East,92,0.0,0.0,50,0.00,,,0.00,Wunderground v.1.15,2013-08-25 18:20:00,
2013-08-25 14:30:00,79.1,59.4,30.23,East,98,0.0,0.0,51,0.00,,,0.00,Wunderground v.1.15,2013-08-25 18:30:00,
2013-08-25 14:35:00,79.1,58.3,30.23,ESE,102,0.0,1.0,49,0.00,,,0.00,Wunderground v.1.15,2013-08-25 18:35:00,
2013-08-25 14:45:00,79.1,55.3,30.23,SE,126,1.0,1.0,44,0.00,,,0.00,Wunderground v.1.15,2013-08-25 18:45:00,
2013-08-25 14:55:00,79.4,58.6,30.22,South,171,0.0,1.0,49,0.00,,,0.00,Wunderground v.1.15,2013-08-25 18:55:00,
2013-08-25 15:00:00,79.7,57.7,30.22,SSE,165,0.0,0.0,47,0.00,,,0.00,Wunderground v.1.15,2013-08-25 19:00:00,
2013-08-25 15:10:00,79.4,59.1,30.21,South,182,0.0,0.0,50,0.00,,,0.00,Wunderground v.1.15,2013-08-25 19:10:00,
2013-08-25 15:20:00,79.4,59.1,30.21,SSE,156,0.0,1.0,50,0.00,,,0.00,Wunderground v.1.15,2013-08-25 19:20:00,
2013-08-25 15:25:00,79.7,58.3,30.21,SSE,164,0.0,1.0,48,0.00,,,0.00,Wunderground v.1.15,2013-08-25 19:25:00,
2013-08-25 15:35:00,80.4,57.1,30.20,ENE,59,0.0,0.0,45,0.00,,,0.00,Wunderground v.1.15,2013-08-25 19:35:00,
2013-08-25 15:45:00,79.7,59.4,30.20,ENE,61,0.0,0.0,50,0.00,,,0.00,Wunderground v.1.15,2013-08-25 19:45:00,
2013-08-25 15:55:00,78.5,59.4,30.20,ENE,64,0.0,0.0,52,0.00,,,0.00,Wunderground v.1.15,2013-08-25 19:55:00,
2013-08-25 16:05:00,78.4,58.8,30.20,ENE,65,0.0,0.0,51,0.00,,,0.00,Wunderground v.1.15,2013-08-25 20:05:00,
2013-08-25 16:15:00,77.7,58.7,30.20,ENE,64,0.0,0.0,52,0.00,,,0.00,Wunderground v.1.15,2013-08-25 20:15:00,
2013-08-25 16:25:00,76.5,59.1,30.19,NE,53,0.0,0.0,55,0.00,,,0.00,Wunderground v.1.15,2013-08-25 20:25:00,
2013-08-25 16:35:00,75.8,59.0,30.19,NE,55,0.0,0.0,56,0.00,,,0.00,Wunderground v.1.15,2013-08-25 20:35:00,
2013-08-25 16:45:00,75.3,58.5,30.19,NE,55,0.0,0.0,56,0.00,,,0.00,Wunderground v.1.15,2013-08-25 20:45:00,
2013-08-25 16:50:00,75.1,59.8,30.19,NE,55,0.0,0.0,59,0.00,,,0.00,Wunderground v.1.15,2013-08-25 20:50:00,
2013-08-25 17:00:00,74.6,60.3,30.18,NE,55,0.0,0.0,61,0.00,,,0.00,Wunderground v.1.15,2013-08-25 21:00:00,
2013-08-25 17:10:00,74.2,61.2,30.18,NE,55,0.0,0.0,64,0.00,,,0.00,Wunderground v.1.15,2013-08-25 21:10:00,
2013-08-25 17:15:00,74.0,61.0,30.18,NE,55,0.0,0.0,64,0.00,,,0.00,Wunderground v.1.15,2013-08-25 21:15:00,
2013-08-25 17:20:00,73.8,60.9,30.18,NE,55,0.0,0.0,64,0.00,,,0.00,Wunderground v.1.15,2013-08-25 21:20:00,
2013-08-25 17:26:00,73.6,62.0,30.18,NE,55,0.0,0.0,67,0.00,,,0.00,Wunderground v.1.15,2013-08-25 21:26:00,
2013-08-25 17:35:00,73.2,61.2,30.17,NE,55,0.0,0.0,66,0.00,,,0.00,Wunderground v.1.15,2013-08-25 21:35:00,
2013-08-25 17:45:00,73.1,61.1,30.17,ENE,57,0.0,0.0,66,0.00,,,0.00,Wunderground v.1.15,2013-08-25 21:45:00,
2013-08-25 17:55:00,73.0,62.2,30.17,ENE,57,0.0,0.0,69,0.00,,,0.00,Wunderground v.1.15,2013-08-25 21:55:00,
2013-08-25 18:00:00,72.9,61.7,30.17,NE,56,0.0,0.0,68,0.00,,,0.00,Wunderground v.1.15,2013-08-25 22:00:00,
2013-08-25 18:10:00,72.6,61.8,30.17,ENE,57,0.0,0.0,69,0.00,,,0.00,Wunderground v.1.15,2013-08-25 22:10:00,
2013-08-25 18:20:00,72.1,62.2,30.16,ENE,57,0.0,0.0,71,0.00,,,0.00,Wunderground v.1.15,2013-08-25 22:20:00,
2013-08-25 18:30:00,71.6,62.5,30.16,ENE,57,0.0,0.0,73,0.00,,,0.00,Wunderground v.1.15,2013-08-25 22:30:00,
2013-08-25 18:40:00,71.2,62.5,30.16,ENE,57,0.0,0.0,74,0.00,,,0.00,Wunderground v.1.15,2013-08-25 22:40:00,
2013-08-25 18:50:00,70.6,62.3,30.15,ENE,57,0.0,0.0,75,0.00,,,0.00,Wunderground v.1.15,2013-08-25 22:50:00,
2013-08-25 19:00:00,70.1,62.2,30.15,ENE,57,0.0,0.0,76,0.00,,,0.00,Wunderground v.1.15,2013-08-25 23:00:00,
2013-08-25 19:10:00,69.6,61.7,30.14,ENE,57,0.0,0.0,76,0.00,,,0.00,Wunderground v.1.15,2013-08-25 23:10:00,
2013-08-25 19:20:00,69.2,62.0,30.15,ENE,57,0.0,0.0,78,0.00,,,0.00,Wunderground v.1.15,2013-08-25 23:20:00,
2013-08-25 19:30:00,68.6,61.5,30.15,ENE,57,0.0,0.0,78,0.00,,,0.00,Wunderground v.1.15,2013-08-25 23:30:00,
2013-08-25 19:40:00,68.1,61.3,30.15,NE,56,0.0,0.0,79,0.00,,,0.00,Wunderground v.1.15,2013-08-25 23:40:00,
2013-08-25 19:50:00,67.6,61.2,30.15,ENE,57,0.0,0.0,80,0.00,,,0.00,Wunderground v.1.15,2013-08-25 23:50:00,
2013-08-25 19:55:00,67.4,61.4,30.15,NE,56,0.0,0.0,81,0.00,,,0.00,Wunderground v.1.15,2013-08-25 23:55:00,
2013-08-25 20:05:00,66.9,61.2,30.14,ENE,57,0.0,0.0,82,0.00,,,0.00,Wunderground v.1.15,2013-08-26 00:05:00,
2013-08-25 20:10:00,66.7,60.7,30.15,ENE,57,0.0,0.0,81,0.00,,,0.00,Wunderground v.1.15,2013-08-26 00:10:00,
2013-08-25 20:20:00,66.3,60.3,30.15,ENE,57,0.0,0.0,81,0.00,,,0.00,Wunderground v.1.15,2013-08-26 00:20:00,
2013-08-25 20:31:00,66.2,60.2,30.15,NE,56,0.0,0.0,81,0.00,,,0.00,Wunderground v.1.15,2013-08-26 00:31:00,
2013-08-25 20:40:00,66.1,60.4,30.15,ENE,57,0.0,0.0,82,0.00,,,0.00,Wunderground v.1.15,2013-08-26 00:40:00,
2013-08-25 20:50:00,66.0,60.0,30.15,ENE,57,0.0,0.0,81,0.00,,,0.00,Wunderground v.1.15,2013-08-26 00:50:00,
2013-08-25 21:00:00,65.9,60.2,30.15,ENE,57,0.0,0.0,82,0.00,,,0.00,Wunderground v.1.15,2013-08-26 01:00:00,
2013-08-25 21:05:00,65.7,59.7,30.15,NE,56,0.0,0.0,81,0.00,,,0.00,Wunderground v.1.15,2013-08-26 01:05:00,
2013-08-25 21:15:00,65.5,59.5,30.14,ENE,57,0.0,0.0,81,0.00,,,0.00,Wunderground v.1.15,2013-08-26 01:15:00,
2013-08-25 21:25:00,65.4,59.8,30.14,ENE,57,0.0,0.0,82,0.00,,,0.00,Wunderground v.1.15,2013-08-26 01:25:00,
2013-08-25 21:35:00,65.3,59.0,30.14,ENE,57,0.0,0.0,80,0.00,,,0.00,Wunderground v.1.15,2013-08-26 01:35:00,
2013-08-25 21:45:00,65.3,59.0,30.14,ENE,57,0.0,0.0,80,0.00,,,0.00,Wunderground v.1.15,2013-08-26 01:45:00,
2013-08-25 21:50:00,65.2,59.2,30.13,NE,56,0.0,0.0,81,0.00,,,0.00,Wunderground v.1.15,2013-08-26 01:50:00,
2013-08-25 22:00:00,65.1,59.5,30.13,NE,56,0.0,0.0,82,0.00,,,0.00,Wunderground v.1.15,2013-08-26 02:00:00,
2013-08-25 22:10:00,64.9,59.3,30.13,ENE,57,0.0,0.0,82,0.00,,,0.00,Wunderground v.1.15,2013-08-26 02:10:00,
2013-08-25 22:21:00,64.6,58.6,30.14,ENE,57,0.0,0.0,81,0.00,,,0.00,Wunderground v.1.15,2013-08-26 02:21:00,
2013-08-25 22:30:00,64.5,59.2,30.14,ENE,57,0.0,0.0,83,0.00,,,0.00,Wunderground v.1.15,2013-08-26 02:30:00,
2013-08-25 22:35:00,64.3,58.7,30.14,NE,56,0.0,0.0,82,0.00,,,0.00,Wunderground v.1.15,2013-08-26 02:35:00,
2013-08-25 22:45:00,64.3,58.7,30.14,ENE,57,0.0,0.0,82,0.00,,,0.00,Wunderground v.1.15,2013-08-26 02:45:00,
2013-08-25 22:51:00,64.2,58.6,30.14,ENE,57,0.0,0.0,82,0.00,,,0.00,Wunderground v.1.15,2013-08-26 02:51:00,
2013-08-25 23:00:00,64.1,58.8,30.13,NE,56,0.0,0.0,83,0.00,,,0.00,Wunderground v.1.15,2013-08-26 03:00:00,
2013-08-25 23:10:00,63.8,58.9,30.13,ENE,57,0.0,0.0,84,0.00,,,0.00,Wunderground v.1.15,2013-08-26 03:10:00,
2013-08-25 23:15:00,63.7,58.8,30.13,ENE,57,0.0,0.0,84,0.00,,,0.00,Wunderground v.1.15,2013-08-26 03:15:00,
2013-08-25 23:25:00,63.6,59.0,30.13,NE,56,0.0,0.0,85,0.00,,,0.00,Wunderground v.1.15,2013-08-26 03:25:00,